Terminal Aerodrome Forecast
Issued by NWS Shreveport, LA

Home | Current Version | Previous Version | Text Only | Print | Product List | Glossary On
Versions: 1 2 3 4 5 6 7 8 9 10 11 12 13 14 15 16 17
000
FTUS44 KSHV 291629 AAC
TAFGGG
TAF AMD
KGGG 291629Z 2916/3012 19012G18KT P6SM SKC
     FM291800 20015G24KT P6SM FEW030
     FM300000 17006KT P6SM SKC
      TEMPO 3008/3012 BKN015=

USA.gov is the U.S. government's official web portal to all federal, state and local government web resources and services.